Time;durP1;ratioP1;P1;durP2;ratioP2;P2;SDS_P1;SDS_P2;PMS_P1;PMS_P2;Temp;Humidity;BMP_temperature;BMP_pressure;BME280_temperature;BME280_humidity;BME280_pressure;Samples;Min_cycle;Max_cycle;Signal;HPM_P1;HPM_P2
2022/04/28 00:00:45;;;;;;;66.53;24.58;;;;;;;-141.50;100.00;63355.56;5078968;28;20087;-78
2022/04/28 00:03:12;;;;;;;72.90;26.42;;;;;;;-141.50;100.00;63355.56;5075317;28;20485;-76
2022/04/28 00:05:42;;;;;;;68.43;26.45;;;;;;;-141.50;100.00;63355.56;5073807;28;20060;-75
2022/04/28 00:08:10;;;;;;;55.50;21.02;;;;;;;-141.50;100.00;63355.56;5073610;28;20097;-79
2022/04/28 00:10:38;;;;;;;51.85;21.38;;;;;;;-141.50;100.00;63355.56;5076085;28;20106;-77
2022/04/28 00:13:06;;;;;;;47.47;21.00;;;;;;;-141.50;100.00;63355.56;5076336;28;20083;-77
2022/04/28 00:15:33;;;;;;;48.47;20.38;;;;;;;-141.50;100.00;63355.56;5080033;28;20485;-79
2022/04/28 00:18:00;;;;;;;46.28;19.80;;;;;;;-141.50;100.00;63355.56;5082291;28;20292;-77
2022/04/28 00:20:29;;;;;;;35.95;15.10;;;;;;;-141.50;100.00;63355.56;5081983;28;20193;-75
2022/04/28 00:22:56;;;;;;;32.05;13.35;;;;;;;-141.50;100.00;63355.56;5080629;28;20122;-78
2022/04/28 00:25:23;;;;;;;38.03;16.15;;;;;;;-141.50;100.00;63355.56;5081471;28;20053;-78
2022/04/28 00:27:50;;;;;;;36.20;15.05;;;;;;;-141.50;100.00;63355.56;5084779;28;20070;-78
2022/04/28 00:30:17;;;;;;;30.92;13.43;;;;;;;-141.50;100.00;63355.56;5080209;28;20044;-76
2022/04/28 00:32:43;;;;;;;24.13;11.18;;;;;;;-141.50;100.00;63355.56;5075263;28;20052;-79
2022/04/28 00:35:10;;;;;;;20.35;10.25;;;;;;;-141.50;100.00;63355.56;5075322;28;20049;-78
2022/04/28 00:37:37;;;;;;;22.30;10.07;;;;;;;-141.50;100.00;63355.56;5073716;28;20083;-77
2022/04/28 00:40:05;;;;;;;18.85;9.68;;;;;;;-141.50;100.00;63355.56;5076121;28;20087;-76
2022/04/28 00:42:31;;;;;;;17.95;8.75;;;;;;;-141.50;100.00;63355.56;5071060;28;20049;-76
2022/04/28 00:44:58;;;;;;;18.25;9.55;;;;;;;-141.50;100.00;63355.56;5071876;28;20058;-77
2022/04/28 00:50:38;;;;;;;24.33;10.52;;;;;;;-141.50;100.00;63355.56;5071890;28;20481;-77
2022/04/28 00:52:58;;;;;;;29.35;14.70;;;;;;;-141.50;100.00;63355.56;5076906;28;20060;-79
2022/04/28 00:55:25;;;;;;;29.20;15.07;;;;;;;-141.50;100.00;63355.56;5076331;28;20108;-79
2022/04/28 00:57:52;;;;;;;28.60;14.77;;;;;;;-141.50;100.00;63355.56;5079300;28;20052;-80
2022/04/28 01:00:19;;;;;;;28.80;14.30;;;;;;;-141.50;100.00;63355.56;5073087;28;20105;-79
2022/04/28 01:02:45;;;;;;;32.65;15.85;;;;;;;-141.50;100.00;63355.56;5074022;28;20078;-76
2022/04/28 01:05:12;;;;;;;32.97;15.75;;;;;;;-141.50;100.00;63355.56;5071284;28;20186;-76
2022/04/28 01:07:39;;;;;;;34.17;15.18;;;;;;;-141.50;100.00;63355.56;5071641;28;20080;-77
2022/04/28 01:10:05;;;;;;;34.35;16.17;;;;;;;-141.50;100.00;63355.56;5071667;28;20064;-77
2022/04/28 01:12:32;;;;;;;32.80;16.10;;;;;;;-141.50;100.00;63355.56;5072349;28;20072;-77
2022/04/28 01:14:59;;;;;;;26.98;15.40;;;;;;;-141.50;100.00;63355.56;5073626;28;20075;-77
2022/04/28 01:17:25;;;;;;;33.08;15.70;;;;;;;-141.50;100.00;63355.56;5071958;28;20076;-77
2022/04/28 01:19:52;;;;;;;30.00;14.63;;;;;;;-141.50;100.00;63355.56;5088981;28;20082;-74
2022/04/28 01:22:18;;;;;;;29.65;14.50;;;;;;;-141.50;100.00;63355.56;5075364;28;20068;-77
2022/04/28 01:24:45;;;;;;;24.48;13.93;;;;;;;-141.50;100.00;63355.56;5074246;28;20074;-78
2022/04/28 01:27:15;;;;;;;28.08;14.45;;;;;;;-141.50;100.00;63355.56;5073679;28;20457;-77
2022/04/28 01:29:42;;;;;;;25.73;13.70;;;;;;;-141.50;100.00;63355.56;5074311;28;20044;-78
2022/04/28 01:32:09;;;;;;;26.80;14.50;;;;;;;-141.50;100.00;63355.56;5071705;28;20067;-76
2022/04/28 01:34:35;;;;;;;27.00;13.88;;;;;;;-141.50;100.00;63355.56;5070300;28;20416;-76
2022/04/28 01:37:03;;;;;;;26.42;13.93;;;;;;;-141.50;100.00;63355.56;5072402;28;20067;-74
2022/04/28 01:39:29;;;;;;;24.08;13.40;;;;;;;-141.50;100.00;63355.56;5072312;28;20079;-77
2022/04/28 01:41:56;;;;;;;23.90;12.75;;;;;;;-141.50;100.00;63355.56;5070569;28;20059;-77
2022/04/28 01:44:22;;;;;;;28.83;13.73;;;;;;;-141.50;100.00;63355.56;5069537;28;20053;-78
2022/04/28 01:46:49;;;;;;;28.95;13.75;;;;;;;-141.50;100.00;63355.56;5070452;28;20048;-77
2022/04/28 01:49:15;;;;;;;24.60;12.27;;;;;;;-141.50;100.00;63355.56;5069848;28;20084;-76
2022/04/28 01:57:12;;;;;;;21.85;10.02;;;;;;;-141.50;100.00;63355.56;5072994;28;20476;-78
2022/04/28 01:59:39;;;;;;;14.48;8.80;;;;;;;-141.50;100.00;63355.56;5084642;28;20048;-78
2022/04/28 02:02:05;;;;;;;17.20;9.57;;;;;;;-141.50;100.00;63355.56;5073730;28;20139;-78
2022/04/28 02:04:32;;;;;;;14.68;8.98;;;;;;;-141.50;100.00;63355.56;5073575;28;20080;-77
2022/04/28 02:06:59;;;;;;;18.83;9.18;;;;;;;-141.50;100.00;63355.56;5072027;28;20052;-78
2022/04/28 02:09:26;;;;;;;16.80;9.18;;;;;;;-141.50;100.00;63355.56;5072540;28;20048;-76
2022/04/28 02:11:52;;;;;;;18.88;10.10;;;;;;;-141.50;100.00;63355.56;5071363;28;20109;-78
2022/04/28 02:14:19;;;;;;;23.48;10.43;;;;;;;-141.50;100.00;63355.56;5085427;28;20112;-77
2022/04/28 02:16:46;;;;;;;18.90;11.15;;;;;;;-141.50;100.00;63355.56;5085415;28;20132;-77
2022/04/28 02:19:12;;;;;;;22.08;11.65;;;;;;;-141.50;100.00;63355.56;5074036;28;20437;-77
2022/04/28 02:21:39;;;;;;;23.98;12.30;;;;;;;-141.50;100.00;63355.56;5070737;28;20079;-77
2022/04/28 02:24:05;;;;;;;23.92;12.30;;;;;;;-141.50;100.00;63355.56;5069347;28;20052;-77
2022/04/28 02:26:32;;;;;;;30.10;13.82;;;;;;;-141.50;100.00;63355.56;5071343;28;20461;-77
2022/04/28 02:28:58;;;;;;;25.67;12.85;;;;;;;-141.50;100.00;63355.56;5071676;28;20049;-78
2022/04/28 02:31:25;;;;;;;26.92;12.50;;;;;;;-141.50;100.00;63355.56;5073588;28;20068;-77
2022/04/28 02:33:52;;;;;;;20.63;13.23;;;;;;;-141.50;100.00;63355.56;5072418;28;20459;-77
2022/04/28 02:36:19;;;;;;;23.15;12.65;;;;;;;-141.50;100.00;63355.56;5074005;28;20182;-76
2022/04/28 02:38:46;;;;;;;25.55;12.15;;;;;;;-141.50;100.00;63355.56;5081624;28;20048;-75
2022/04/28 02:41:16;;;;;;;20.90;11.02;;;;;;;-141.50;100.00;63355.56;5093666;28;20048;-75
2022/04/28 02:43:42;;;;;;;16.52;9.80;;;;;;;-141.50;100.00;63355.56;5083445;28;20095;-77
2022/04/28 02:46:08;;;;;;;21.95;9.60;;;;;;;-141.50;100.00;63355.56;5073928;28;20432;-77
2022/04/28 02:48:36;;;;;;;19.23;9.73;;;;;;;-141.50;100.00;63355.56;5072689;28;20787;-77
2022/04/28 02:51:03;;;;;;;14.85;8.85;;;;;;;-141.50;100.00;63355.56;5074372;28;20056;-79
2022/04/28 02:53:29;;;;;;;16.77;9.70;;;;;;;-141.50;100.00;63355.56;5077435;28;20048;-79
2022/04/28 02:55:56;;;;;;;17.50;9.88;;;;;;;-141.50;100.00;63355.56;5078509;28;20067;-77
2022/04/28 02:58:22;;;;;;;19.02;10.35;;;;;;;-141.50;100.00;63355.56;5083399;28;20059;-78
2022/04/28 03:00:49;;;;;;;22.83;11.65;;;;;;;-141.50;100.00;63355.56;5088549;28;20045;-78
2022/04/28 03:03:15;;;;;;;21.02;11.68;;;;;;;-141.50;100.00;63355.56;5078018;28;20056;-78
2022/04/28 03:11:16;;;;;;;24.63;12.15;;;;;;;-141.50;100.00;63355.56;5076472;28;20048;-77
2022/04/28 03:13:42;;;;;;;28.30;13.50;;;;;;;-141.50;100.00;63355.56;5078838;28;20055;-77
2022/04/28 03:16:09;;;;;;;20.70;11.32;;;;;;;-141.50;100.00;63355.56;5077792;28;20477;-78
2022/04/28 03:18:37;;;;;;;18.85;11.30;;;;;;;-141.50;100.00;63355.56;5076810;28;20052;-78
2022/04/28 03:21:05;;;;;;;21.83;11.38;;;;;;;-141.50;100.00;63355.56;5076175;28;20045;-79
2022/04/28 03:23:32;;;;;;;21.13;11.50;;;;;;;-141.50;100.00;63355.56;5076159;28;20056;-78
2022/04/28 03:25:58;;;;;;;25.90;12.07;;;;;;;-141.50;100.00;63355.56;5075405;28;20151;-79
2022/04/28 03:28:25;;;;;;;24.00;12.05;;;;;;;-141.50;100.00;63355.56;5076824;28;20135;-78
2022/04/28 03:30:51;;;;;;;19.83;11.70;;;;;;;-141.50;100.00;63355.56;5078623;28;20135;-77
2022/04/28 03:33:18;;;;;;;25.10;12.50;;;;;;;-141.50;100.00;63355.56;5087568;28;20688;-78
2022/04/28 03:35:45;;;;;;;21.35;12.95;;;;;;;-141.50;100.00;63355.56;5085338;28;20048;-78
2022/04/28 03:38:14;;;;;;;20.17;12.32;;;;;;;-141.50;100.00;63355.56;5083458;28;20056;-77
2022/04/28 03:40:42;;;;;;;22.70;12.23;;;;;;;-141.50;100.00;63355.56;5073072;28;20458;-77
2022/04/28 03:43:12;;;;;;;24.40;12.13;;;;;;;-141.50;100.00;63355.56;5090070;28;20048;-74
2022/04/28 03:45:39;;;;;;;25.27;13.38;;;;;;;-141.50;100.00;63355.56;5100174;28;20166;-76
2022/04/28 03:48:09;;;;;;;26.27;13.15;;;;;;;-141.50;100.00;63355.56;5100349;28;20082;-76
2022/04/28 03:50:37;;;;;;;25.73;13.13;;;;;;;-141.50;100.00;63355.56;5087480;28;20075;-77
2022/04/28 03:53:05;;;;;;;25.65;13.10;;;;;;;-141.50;100.00;63355.56;5084751;28;20072;-77
2022/04/28 03:55:31;;;;;;;22.20;13.07;;;;;;;-141.50;100.00;63355.56;5081809;28;20044;-76
2022/04/28 03:57:58;;;;;;;20.17;11.88;;;;;;;-141.50;100.00;63355.56;5079954;28;20090;-75
2022/04/28 04:00:26;;;;;;;20.55;13.02;;;;;;;-141.50;100.00;63355.56;5088869;28;20111;-76
2022/04/28 04:02:52;;;;;;;24.30;13.00;;;;;;;-141.50;100.00;63355.56;5095723;28;20073;-77
2022/04/28 04:05:19;;;;;;;25.33;13.18;;;;;;;-141.50;100.00;63355.56;5099505;28;20074;-77
2022/04/28 04:07:46;;;;;;;19.67;11.75;;;;;;;-141.50;100.00;63355.56;5097526;28;20044;-78
2022/04/28 04:10:13;;;;;;;22.38;12.75;;;;;;;-141.50;100.00;63355.56;5094319;28;20083;-79
2022/04/28 04:12:40;;;;;;;21.02;11.70;;;;;;;-141.50;100.00;63355.56;5094120;28;20052;-77
2022/04/28 04:15:07;;;;;;;19.40;11.20;;;;;;;-141.50;100.00;63355.56;5093278;28;20063;-78
2022/04/28 04:17:42;;;;;;;22.48;11.38;;;;;;;-141.50;100.00;63355.56;5094953;28;20052;-80
2022/04/28 04:20:09;;;;;;;21.55;11.25;;;;;;;-141.50;100.00;63355.56;5091974;28;20557;-77
2022/04/28 04:22:36;;;;;;;19.85;12.15;;;;;;;-141.50;100.00;63355.56;5091089;28;20515;-79
2022/04/28 04:25:04;;;;;;;20.35;12.10;;;;;;;-141.50;100.00;63355.56;5097026;28;20083;-77
2022/04/28 04:27:30;;;;;;;20.48;11.98;;;;;;;-141.50;100.00;63355.56;5103856;28;20129;-79
2022/04/28 04:29:57;;;;;;;24.63;12.70;;;;;;;-141.50;100.00;63355.56;5106398;28;20078;-79
2022/04/28 04:32:27;;;;;;;23.75;12.82;;;;;;;-141.50;100.00;63355.56;5105523;28;20059;-77
2022/04/28 04:34:53;;;;;;;19.98;11.88;;;;;;;-141.50;100.00;63355.56;5087119;28;20071;-79
2022/04/28 04:37:26;;;;;;;22.42;11.60;;;;;;;-141.50;100.00;63355.56;5079060;28;20127;-80
2022/04/28 04:39:54;;;;;;;18.05;11.63;;;;;;;-141.50;100.00;63355.56;5079832;28;20105;-77
2022/04/28 04:42:20;;;;;;;21.90;10.75;;;;;;;-141.50;100.00;63355.56;5084264;28;20074;-78
2022/04/28 04:44:47;;;;;;;19.35;10.55;;;;;;;-141.50;100.00;63355.56;5074002;28;20072;-79
2022/04/28 04:47:13;;;;;;;30.77;13.80;;;;;;;-141.50;100.00;63355.56;5073732;28;20122;-79
2022/04/28 04:49:40;;;;;;;24.33;13.50;;;;;;;-141.50;100.00;63355.56;5074251;28;20108;-80
2022/04/28 04:52:06;;;;;;;33.67;15.63;;;;;;;-141.50;100.00;63355.56;5071908;28;20068;-78
2022/04/28 04:54:33;;;;;;;27.77;13.57;;;;;;;-141.50;100.00;63355.56;5073960;28;20114;-79
2022/04/28 04:57:03;;;;;;;25.65;13.75;;;;;;;-141.50;100.00;63355.56;5074968;28;20063;-82
2022/04/28 04:59:29;;;;;;;31.73;15.23;;;;;;;-141.50;100.00;63355.56;5086088;28;20048;-80
2022/04/28 05:01:56;;;;;;;37.75;15.40;;;;;;;-141.50;100.00;63355.56;5074008;28;20299;-83
2022/04/28 05:04:23;;;;;;;35.03;15.98;;;;;;;-141.50;100.00;63355.56;5083915;28;20052;-78
2022/04/28 05:06:49;;;;;;;42.05;15.75;;;;;;;-141.50;100.00;63355.56;5094702;28;20481;-78
2022/04/28 05:09:16;;;;;;;80.78;20.48;;;;;;;-141.50;100.00;63355.56;5100070;28;20383;-79
2022/04/28 05:11:43;;;;;;;135.65;29.45;;;;;;;-141.50;100.00;63355.56;5101935;28;20048;-81
2022/04/28 05:14:10;;;;;;;66.60;19.35;;;;;;;-141.50;100.00;63355.56;5101138;28;20471;-81
2022/04/28 05:16:37;;;;;;;54.40;17.45;;;;;;;-141.50;100.00;63355.56;5100839;28;20071;-80
2022/04/28 05:19:03;;;;;;;31.88;13.82;;;;;;;-141.50;100.00;63355.56;5100617;28;20052;-78
2022/04/28 05:21:30;;;;;;;25.20;13.20;;;;;;;-141.50;100.00;63355.56;5099474;28;20074;-79
2022/04/28 05:23:56;;;;;;;27.27;14.27;;;;;;;-141.50;100.00;63355.56;5098961;28;20457;-81
2022/04/28 05:26:24;;;;;;;33.72;14.55;;;;;;;-141.50;100.00;63355.56;5101375;28;20055;-79
2022/04/28 05:28:51;;;;;;;26.58;14.43;;;;;;;-141.50;100.00;63355.56;5100601;28;20047;-80
2022/04/28 05:31:17;;;;;;;31.48;14.07;;;;;;;-141.50;100.00;63355.56;5090686;28;20507;-78
2022/04/28 05:33:45;;;;;;;25.48;13.90;;;;;;;-141.50;100.00;63355.56;5091908;28;20051;-80
2022/04/28 05:36:14;;;;;;;22.15;13.68;;;;;;;-141.50;100.00;63355.56;5095336;28;20482;-79
2022/04/28 05:38:41;;;;;;;27.55;14.15;;;;;;;-141.50;100.00;63355.56;5094543;28;20048;-81
2022/04/28 05:41:08;;;;;;;25.27;13.65;;;;;;;-141.50;100.00;63355.56;5098123;28;20492;-80
2022/04/28 05:46:20;;;;;;;;;;;;;;;-141.50;100.00;63355.56;5093688;28;20111;-80
2022/04/28 05:48:47;;;;;;;27.23;13.38;;;;;;;-141.50;100.00;63355.56;5098733;28;19928;-79
2022/04/28 05:51:14;;;;;;;24.15;12.82;;;;;;;-141.50;100.00;63355.56;5094242;28;20559;-80
2022/04/28 05:53:41;;;;;;;23.67;12.60;;;;;;;-141.50;100.00;63355.56;5093845;28;20105;-80
2022/04/28 05:56:07;;;;;;;23.13;12.95;;;;;;;-141.50;100.00;63355.56;5092445;28;20083;-80
2022/04/28 05:58:34;;;;;;;24.08;12.95;;;;;;;-141.50;100.00;63355.56;5087071;28;20044;-80
2022/04/28 06:01:00;;;;;;;27.23;13.68;;;;;;;-141.50;100.00;63355.56;5084628;28;20070;-81
2022/04/28 06:03:27;;;;;;;28.55;14.93;;;;;;;-141.50;100.00;63355.56;5091661;28;20052;-80
2022/04/28 06:05:54;;;;;;;32.90;16.73;;;;;;;-141.50;100.00;63355.56;5092581;28;20048;-79
2022/04/28 06:08:20;;;;;;;37.95;16.08;;;;;;;-141.50;100.00;63355.56;5094742;28;20075;-81
2022/04/28 06:10:47;;;;;;;27.85;15.35;;;;;;;-141.50;100.00;63355.56;5093220;28;20492;-81
2022/04/28 06:13:13;;;;;;;23.13;14.45;;;;;;;-141.50;100.00;63355.56;5093814;28;20118;-81
2022/04/28 06:15:40;;;;;;;27.85;15.55;;;;;;;-141.50;100.00;63355.56;5093235;28;20074;-81
2022/04/28 06:18:06;;;;;;;29.20;14.32;;;;;;;-141.50;100.00;63355.56;5090669;28;20094;-80
2022/04/28 06:20:33;;;;;;;22.75;14.68;;;;;;;-141.50;100.00;63355.56;5090779;28;20109;-81
2022/04/28 06:22:59;;;;;;;21.92;13.57;;;;;;;-141.50;100.00;63355.56;5090670;28;20333;-80
2022/04/28 06:25:26;;;;;;;25.20;15.27;;;;;;;-141.50;100.00;63355.56;5092912;28;20141;-81
2022/04/28 06:27:52;;;;;;;28.58;15.40;;;;;;;-141.50;100.00;63355.56;5092320;28;20486;-81
2022/04/28 06:30:35;;;;;;;25.50;14.38;;;;;;;-141.50;100.00;63355.56;5091617;28;20507;-82
2022/04/28 06:33:05;;;;;;;23.63;14.88;;;;;;;-141.50;100.00;63355.56;5092888;28;20147;-80
2022/04/28 06:35:33;;;;;;;24.92;15.95;;;;;;;-141.50;100.00;63355.56;5088385;28;20105;-80
2022/04/28 06:38:01;;;;;;;24.10;15.60;;;;;;;-141.50;100.00;63355.56;5092729;28;20150;-80
2022/04/28 06:40:28;;;;;;;27.55;16.48;;;;;;;-141.50;100.00;63355.56;5090580;28;20040;-82
2022/04/28 06:42:55;;;;;;;28.55;16.20;;;;;;;-141.50;100.00;63355.56;5089311;28;20084;-81
2022/04/28 06:45:22;;;;;;;28.40;16.17;;;;;;;-141.50;100.00;63355.56;5092731;28;20084;-79
2022/04/28 06:47:50;;;;;;;27.75;15.70;;;;;;;-141.50;100.00;63355.56;5090973;28;20052;-81
2022/04/28 06:50:16;;;;;;;27.92;15.27;;;;;;;-141.50;100.00;63355.56;5093747;28;20167;-80
2022/04/28 06:52:43;;;;;;;31.13;16.48;;;;;;;-141.50;100.00;63355.56;5093865;28;20059;-81
2022/04/28 06:55:10;;;;;;;29.33;15.65;;;;;;;-141.50;100.00;63355.56;5093205;28;20070;-80
2022/04/28 06:57:37;;;;;;;23.60;15.70;;;;;;;-141.50;100.00;63355.56;5093126;28;20074;-80
2022/04/28 07:00:06;;;;;;;24.92;14.98;;;;;;;-141.50;100.00;63355.56;5074797;28;20048;-80
2022/04/28 07:02:33;;;;;;;23.70;14.35;;;;;;;-141.50;100.00;63355.56;5091559;28;20592;-81
2022/04/28 07:05:00;;;;;;;30.67;14.73;;;;;;;-141.50;100.00;63355.56;5090773;28;20299;-79
2022/04/28 07:07:26;;;;;;;25.95;15.43;;;;;;;-141.50;100.00;63355.56;5092539;28;20104;-81
2022/04/28 07:09:53;;;;;;;26.45;15.15;;;;;;;-141.50;100.00;63355.56;5095598;28;20519;-80
2022/04/28 07:12:31;;;;;;;24.67;14.23;;;;;;;-141.50;100.00;63355.56;5095056;28;20122;-80
2022/04/28 07:14:58;;;;;;;22.42;13.93;;;;;;;-141.50;100.00;63355.56;5096613;28;20048;-82
2022/04/28 07:17:25;;;;;;;25.85;15.73;;;;;;;-141.50;100.00;63355.56;5096193;28;20488;-80
2022/04/28 07:19:51;;;;;;;27.27;15.60;;;;;;;-141.50;100.00;63355.56;5095970;28;20052;-79
2022/04/28 07:22:18;;;;;;;27.52;15.40;;;;;;;-141.50;100.00;63355.56;5095371;28;20198;-79
2022/04/28 07:24:44;;;;;;;27.90;14.63;;;;;;;-141.50;100.00;63355.56;5093221;28;20044;-80
2022/04/28 07:27:11;;;;;;;22.02;14.27;;;;;;;-141.50;100.00;63355.56;5096221;28;20044;-82
2022/04/28 07:29:38;;;;;;;23.00;13.82;;;;;;;-141.50;100.00;63355.56;5104827;28;20052;-81
2022/04/28 07:32:05;;;;;;;19.55;13.88;;;;;;;-141.50;100.00;63355.56;5093953;28;20044;-79
2022/04/28 07:34:32;;;;;;;29.17;14.70;;;;;;;-141.50;100.00;63355.56;5091334;28;20048;-79
2022/04/28 07:36:59;;;;;;;26.05;14.30;;;;;;;-141.50;100.00;63355.56;5092664;28;20112;-79
2022/04/28 07:39:37;;;;;;;24.55;12.95;;;;;;;-141.50;100.00;63355.56;5092808;28;20142;-79
2022/04/28 07:42:06;;;;;;;23.67;13.15;;;;;;;-141.50;100.00;63355.56;5094362;28;20109;-79
2022/04/28 07:44:36;;;;;;;22.30;13.45;;;;;;;-141.50;100.00;63355.56;5093755;28;20051;-80
2022/04/28 07:47:03;;;;;;;28.27;14.10;;;;;;;-141.50;100.00;63355.56;5100011;28;20086;-80
2022/04/28 07:49:29;;;;;;;22.60;14.52;;;;;;;-141.50;100.00;63355.56;5100803;28;20052;-81
2022/04/28 07:51:56;;;;;;;23.42;14.05;;;;;;;-141.50;100.00;63355.56;5104719;28;20048;-78
2022/04/28 07:54:25;;;;;;;22.88;14.50;;;;;;;-141.50;100.00;63355.56;5104415;28;20059;-79
2022/04/28 07:56:54;;;;;;;24.90;13.48;;;;;;;-141.50;100.00;63355.56;5103701;28;20074;-79
2022/04/28 07:59:23;;;;;;;22.90;13.18;;;;;;;-141.50;100.00;63355.56;5093760;28;20067;-80
2022/04/28 08:01:51;;;;;;;25.77;13.07;;;;;;;-141.50;100.00;63355.56;5095829;28;20076;-81
2022/04/28 08:04:18;;;;;;;26.35;12.18;;;;;;;-141.50;100.00;63355.56;5096053;28;20420;-81
2022/04/28 08:06:44;;;;;;;19.08;12.43;;;;;;;-141.50;100.00;63355.56;5095132;28;20485;-80
2022/04/28 08:09:11;;;;;;;20.33;12.65;;;;;;;-141.50;100.00;63355.56;5095709;28;20056;-81
2022/04/28 08:11:41;;;;;;;22.00;11.98;;;;;;;-141.50;100.00;63355.56;5095681;28;20357;-80
2022/04/28 08:14:08;;;;;;;20.42;12.05;;;;;;;-141.50;100.00;63355.56;5095992;28;20089;-80
2022/04/28 08:16:34;;;;;;;22.08;12.25;;;;;;;-141.50;100.00;63355.56;5094057;28;20139;-79
2022/04/28 08:19:02;;;;;;;24.08;12.63;;;;;;;-141.50;100.00;63355.56;5095374;28;20056;-80
2022/04/28 08:21:29;;;;;;;25.27;13.38;;;;;;;-141.50;100.00;63355.56;5102708;28;20108;-79
2022/04/28 08:23:57;;;;;;;21.30;13.70;;;;;;;-141.50;100.00;63355.56;5101259;28;20055;-79
2022/04/28 08:26:26;;;;;;;22.05;13.60;;;;;;;-141.50;100.00;63355.56;5099563;28;20528;-80
2022/04/28 08:28:52;;;;;;;25.98;14.20;;;;;;;-141.50;100.00;63355.56;5102495;28;20078;-78
2022/04/28 08:31:19;;;;;;;21.58;13.55;;;;;;;-141.50;100.00;63355.56;5100287;28;20044;-81
2022/04/28 08:33:47;;;;;;;20.60;13.07;;;;;;;-141.50;100.00;63355.56;5099803;28;20238;-81
2022/04/28 08:36:15;;;;;;;21.92;13.13;;;;;;;-141.50;100.00;63355.56;5101485;28;20044;-79
2022/04/28 08:38:44;;;;;;;18.08;12.27;;;;;;;-141.50;100.00;63355.56;5099171;28;20424;-80
2022/04/28 08:41:13;;;;;;;20.73;11.45;;;;;;;-141.50;100.00;63355.56;5095598;28;20072;-79
2022/04/28 08:43:41;;;;;;;19.45;11.52;;;;;;;-141.50;100.00;63355.56;5097143;28;20059;-78
2022/04/28 08:48:58;;;;;;;23.42;13.23;;;;;;;-141.50;100.00;63355.56;5100823;28;20052;-80
2022/04/28 08:51:25;;;;;;;19.77;11.20;;;;;;;-141.50;100.00;63355.56;5096168;28;20062;-81
2022/04/28 08:53:53;;;;;;;19.05;11.75;;;;;;;-141.50;100.00;63355.56;5092484;28;20113;-80
2022/04/28 08:56:21;;;;;;;19.27;11.95;;;;;;;-141.50;100.00;63355.56;5094063;28;20044;-81
2022/04/28 08:58:48;;;;;;;18.83;12.68;;;;;;;-141.50;100.00;63355.56;5084656;28;20566;-80
2022/04/28 09:01:14;;;;;;;21.17;11.88;;;;;;;-141.50;100.00;63355.56;5078865;28;20052;-80
2022/04/28 09:03:42;;;;;;;20.60;12.73;;;;;;;-141.50;100.00;63355.56;5071661;28;20148;-80
2022/04/28 09:06:41;;;;;;;;;;;;;;;;;;;;;
2022/04/28 09:09:14;;;;;;;19.52;12.18;;;;;;;-141.50;100.00;63355.56;5075899;28;20256;-79
2022/04/28 09:11:46;;;;;;;24.33;12.48;;;;;;;-141.50;100.00;63355.56;5082694;28;20086;-77
2022/04/28 09:14:22;;;;;;;23.52;12.85;;;;;;;-141.50;100.00;63355.56;5081017;28;20504;-80
2022/04/28 09:16:51;;;;;;;25.88;13.20;;;;;;;-141.50;100.00;63355.56;5072813;28;20044;-80
2022/04/28 09:19:26;;;;;;;21.70;12.63;;;;;;;-141.50;100.00;63355.56;5073970;28;20091;-81
2022/04/28 09:22:05;;;;;;;18.83;11.40;;;;;;;-141.50;100.00;63355.56;5071516;28;20087;-80
2022/04/28 09:24:39;;;;;;;20.15;11.55;;;;;;;-141.50;100.00;63355.56;5073819;28;20076;-80
2022/04/28 09:27:08;;;;;;;20.08;11.68;;;;;;;-141.50;100.00;63355.56;5071404;28;20087;-80
2022/04/28 09:29:43;;;;;;;27.23;13.65;;;;;;;-141.50;100.00;63355.56;5069247;28;20420;-81
2022/04/28 09:32:13;;;;;;;20.98;11.40;;;;;;;-141.50;100.00;63355.56;5071540;28;20052;-81
2022/04/28 09:35:08;;;;;;;17.17;10.40;;;;;;;-141.50;100.00;63355.56;5071599;28;20558;-81
2022/04/28 09:37:35;;;;;;;;;;;;;;;-141.50;100.00;63355.56;5072471;28;20649;-79
2022/04/28 09:42:48;;;;;;;19.10;11.57;;;;;;;-141.50;100.00;63355.56;5072631;28;20322;-80
2022/04/28 09:45:14;;;;;;;20.38;12.48;;;;;;;-141.50;100.00;63355.56;5072004;28;20104;-80
2022/04/28 09:47:42;;;;;;;22.23;12.27;;;;;;;-141.50;100.00;63355.56;5079322;28;20048;-81
2022/04/28 09:50:16;;;;;;;16.58;11.18;;;;;;;-141.50;100.00;63355.56;5078197;28;20052;-81
2022/04/28 09:52:52;;;;;;;19.45;11.35;;;;;;;-141.50;100.00;63355.56;5076093;28;20059;-80
2022/04/28 09:55:24;;;;;;;21.87;11.50;;;;;;;-141.50;100.00;63355.56;5073583;28;20484;-78
2022/04/28 09:57:50;;;;;;;20.67;11.95;;;;;;;-141.50;100.00;63355.56;5071360;28;20759;-82
2022/04/28 10:00:17;;;;;;;16.17;11.13;;;;;;;-141.50;100.00;63355.56;5073699;28;20079;-80
2022/04/28 10:02:43;;;;;;;16.80;11.35;;;;;;;-141.50;100.00;63355.56;5091279;28;20105;-78
2022/04/28 10:05:11;;;;;;;15.52;11.05;;;;;;;-141.50;100.00;63355.56;5093920;28;20496;-79
2022/04/28 10:07:38;;;;;;;19.08;10.93;;;;;;;-141.50;100.00;63355.56;5090372;28;20134;-79
2022/04/28 10:10:21;;;;;;;17.27;11.48;;;;;;;-141.50;100.00;63355.56;5093526;28;20079;-80
2022/04/28 10:12:48;;;;;;;16.50;11.02;;;;;;;-141.50;100.00;63355.56;5091519;28;20044;-80
2022/04/28 10:15:16;;;;;;;20.38;11.32;;;;;;;-141.50;100.00;63355.56;5090207;28;20048;-79
2022/04/28 10:17:49;;;;;;;16.88;10.70;;;;;;;-141.50;100.00;63355.56;5091299;28;20048;-79
2022/04/28 10:20:29;;;;;;;19.58;11.20;;;;;;;-141.50;100.00;63355.56;5090382;28;20120;-79
2022/04/28 10:32:22;;;;;;;16.02;11.15;;;;;;;-141.50;100.00;63355.56;5090324;28;20048;-80
2022/04/28 10:35:04;;;;;;;15.88;10.43;;;;;;;-141.50;100.00;63355.56;5028833;28;20053;-79
2022/04/28 10:37:45;;;;;;;18.58;10.55;;;;;;;-141.50;100.00;63355.56;5027553;28;20045;-79
2022/04/28 10:40:16;;;;;;;15.70;10.20;;;;;;;-141.50;100.00;63355.56;5059531;28;20059;-80
2022/04/28 10:42:46;;;;;;;16.33;10.35;;;;;;;-141.50;100.00;63355.56;5091092;28;20468;-79
2022/04/28 10:45:23;;;;;;;17.27;11.23;;;;;;;-141.50;100.00;63355.56;5091750;28;20079;-80
2022/04/28 10:51:22;;;;;;;14.07;10.80;;;;;;;-141.50;100.00;63355.56;5090420;28;20083;-78
2022/04/28 10:54:07;;;;;;;21.13;10.85;;;;;;;-141.50;100.00;63355.56;5090220;28;20063;-80
2022/04/28 10:56:39;;;;;;;18.27;11.23;;;;;;;-141.50;100.00;63355.56;5095538;28;20056;-78
2022/04/28 10:59:29;;;;;;;16.02;10.80;;;;;;;-141.50;100.00;63355.56;5080596;28;20068;-78
2022/04/28 11:01:56;;;;;;;15.15;9.25;;;;;;;-141.50;100.00;63355.56;5073772;28;20135;-78
2022/04/28 11:04:25;;;;;;;18.02;11.20;;;;;;;-141.50;100.00;63355.56;5073306;28;20052;-79
2022/04/28 11:06:58;;;;;;;13.65;10.40;;;;;;;-141.50;100.00;63355.56;5078006;28;20052;-77
2022/04/28 11:09:33;;;;;;;13.40;10.35;;;;;;;-141.50;100.00;63355.56;5076564;28;20079;-79
2022/04/28 11:12:18;;;;;;;14.05;10.82;;;;;;;-141.50;100.00;63355.56;5076820;28;20496;-79
2022/04/28 11:14:44;;;;;;;16.25;11.43;;;;;;;-141.50;100.00;63355.56;5075919;28;20093;-79
2022/04/28 11:17:16;;;;;;;16.40;10.68;;;;;;;-141.50;100.00;63355.56;5076897;28;20048;-80
2022/04/28 11:19:44;;;;;;;16.90;10.55;;;;;;;-141.50;100.00;63355.56;5077599;28;20048;-79
2022/04/28 11:22:11;;;;;;;16.65;9.80;;;;;;;-141.50;100.00;63355.56;5078552;28;20593;-80
2022/04/28 11:24:48;;;;;;;16.92;11.10;;;;;;;-141.50;100.00;63355.56;5078952;28;20424;-79
2022/04/28 11:27:27;;;;;;;16.20;10.25;;;;;;;-141.50;100.00;63355.56;5074231;28;20580;-81
2022/04/28 11:29:56;;;;;;;15.68;10.98;;;;;;;-141.50;100.00;63355.56;5072991;28;20422;-80
2022/04/28 11:32:23;;;;;;;17.10;11.45;;;;;;;-141.50;100.00;63355.56;5072549;28;20118;-80
2022/04/28 11:34:52;;;;;;;15.05;11.07;;;;;;;-141.50;100.00;63355.56;5074151;28;20086;-80
2022/04/28 11:37:24;;;;;;;19.35;10.20;;;;;;;-141.50;100.00;63355.56;5074243;28;20098;-80